createdAt,value
2023-02-06T00:00:49.106Z,49.83
2023-02-06T00:03:16.119Z,49.94
2023-02-06T00:05:43.093Z,50.38
2023-02-06T00:08:10.131Z,51.56
2023-02-06T00:10:36.941Z,50.47
2023-02-06T00:13:03.818Z,50.38
2023-02-06T00:15:30.666Z,51.25
2023-02-06T00:17:57.488Z,51.28
2023-02-06T00:20:24.422Z,52.15
2023-02-06T00:22:51.196Z,52.57
2023-02-06T00:25:18.120Z,51.80
2023-02-06T00:27:44.970Z,52.15
2023-02-06T00:30:12.336Z,51.10
2023-02-06T00:32:39.288Z,51.99
2023-02-06T00:35:07.080Z,52.55
2023-02-06T00:37:33.886Z,51.87
2023-02-06T00:40:00.792Z,51.59
2023-02-06T00:42:28.116Z,52.15
2023-02-06T00:44:54.904Z,53.99
2023-02-06T00:47:21.753Z,52.97
2023-02-06T00:49:48.611Z,52.86
2023-02-06T00:52:15.488Z,53.20
2023-02-06T00:54:42.315Z,53.19
2023-02-06T00:57:09.210Z,53.74
2023-02-06T00:59:36.043Z,53.89
2023-02-06T01:02:03.139Z,54.25
2023-02-06T01:04:31.000Z,53.57
2023-02-06T01:06:59.091Z,53.09
2023-02-06T01:09:25.986Z,55.13
2023-02-06T01:11:53.090Z,53.84
2023-02-06T01:14:19.970Z,53.82
2023-02-06T01:16:46.854Z,54.07
2023-02-06T01:19:13.889Z,54.96
2023-02-06T01:21:40.770Z,53.75
2023-02-06T01:24:07.805Z,55.41
2023-02-06T01:26:34.662Z,54.14
2023-02-06T01:29:03.348Z,55.00
2023-02-06T01:31:31.104Z,54.83
2023-02-06T01:34:00.465Z,53.34
2023-02-06T01:36:27.889Z,54.48
2023-02-06T01:38:56.582Z,53.58
2023-02-06T01:41:24.307Z,54.55
2023-02-06T01:44:17.147Z,54.14
2023-02-06T01:46:47.436Z,55.75
2023-02-06T01:49:27.755Z,55.04
2023-02-06T01:52:18.016Z,55.40
2023-02-06T01:54:49.722Z,54.95
2023-02-06T01:57:18.431Z,54.88
2023-02-06T01:59:49.413Z,55.51
2023-02-06T02:02:16.379Z,54.90
2023-02-06T02:04:44.728Z,55.49
2023-02-06T02:07:21.109Z,56.51
2023-02-06T02:09:48.021Z,54.97
2023-02-06T02:12:15.251Z,56.18
2023-02-06T02:14:45.409Z,55.44
2023-02-06T02:17:25.433Z,55.43
2023-02-06T02:20:20.472Z,55.32
2023-02-06T02:22:47.272Z,56.53
2023-02-06T02:25:21.619Z,54.86
2023-02-06T02:28:13.521Z,54.95
2023-02-06T02:31:15.856Z,56.77
2023-02-06T02:34:01.593Z,55.86
2023-02-06T02:36:42.987Z,57.50
2023-02-06T02:39:55.499Z,56.60
2023-02-06T02:42:51.620Z,56.70
2023-02-06T02:45:28.973Z,55.34
2023-02-06T02:48:07.610Z,56.17
2023-02-06T02:50:35.640Z,56.26
2023-02-06T02:53:04.075Z,55.34
2023-02-06T02:55:31.740Z,55.81
2023-02-06T02:58:11.125Z,55.15
2023-02-06T03:00:44.317Z,56.89
2023-02-06T03:03:14.672Z,56.59
2023-02-06T03:05:53.375Z,57.03
2023-02-06T03:08:26.861Z,55.26
2023-02-06T03:11:09.313Z,56.73
2023-02-06T03:13:43.133Z,56.89
2023-02-06T03:16:26.312Z,57.37
2023-02-06T03:19:02.786Z,57.66
2023-02-06T03:21:31.409Z,57.34
2023-02-06T03:24:02.095Z,56.10
2023-02-06T03:26:31.627Z,56.26
2023-02-06T03:29:04.892Z,57.25
2023-02-06T03:31:40.155Z,57.35
2023-02-06T03:34:28.976Z,56.80
2023-02-06T03:36:56.125Z,57.07
2023-02-06T03:39:23.329Z,56.99
2023-02-06T03:41:54.000Z,57.74
2023-02-06T03:44:24.884Z,57.56
2023-02-06T03:46:54.433Z,58.48
2023-02-06T03:49:25.656Z,59.32
2023-02-06T03:52:06.868Z,59.79
2023-02-06T03:54:37.449Z,58.74
2023-02-06T03:57:07.698Z,59.51
2023-02-06T03:59:34.666Z,60.28
2023-02-06T04:02:03.656Z,59.59
2023-02-06T04:04:40.282Z,61.14
2023-02-06T04:07:27.797Z,59.83
2023-02-06T04:09:54.666Z,59.31
2023-02-06T04:12:22.700Z,59.65
2023-02-06T04:14:49.473Z,60.59
2023-02-06T04:17:28.189Z,60.07
2023-02-06T04:20:05.707Z,60.22
2023-02-06T04:22:32.571Z,60.78
2023-02-06T04:24:59.424Z,59.42
2023-02-06T04:27:26.433Z,59.86
2023-02-06T04:29:53.234Z,60.90
2023-02-06T04:32:20.090Z,61.09
2023-02-06T04:34:47.007Z,60.17
2023-02-06T04:37:13.873Z,61.35
2023-02-06T04:39:40.858Z,60.71
2023-02-06T04:42:07.786Z,62.07
2023-02-06T04:44:35.077Z,60.53
2023-02-06T04:47:03.233Z,61.79
2023-02-06T04:49:30.284Z,60.80
2023-02-06T04:51:57.110Z,60.71
2023-02-06T04:54:23.943Z,61.02
2023-02-06T04:56:50.854Z,60.63
2023-02-06T04:59:17.665Z,61.00
2023-02-06T05:01:44.572Z,61.86
2023-02-06T05:04:11.467Z,60.46
2023-02-06T05:06:38.420Z,60.37
2023-02-06T05:09:06.153Z,62.20
2023-02-06T05:11:33.367Z,61.35
2023-02-06T05:14:00.208Z,61.19
2023-02-06T05:16:27.118Z,60.91
2023-02-06T05:18:56.363Z,60.26
2023-02-06T05:21:24.175Z,61.04
2023-02-06T05:23:51.368Z,61.06
2023-02-06T05:26:18.408Z,60.88
2023-02-06T05:28:45.312Z,61.55
2023-02-06T05:31:18.457Z,60.05
2023-02-06T05:33:52.446Z,60.16
2023-02-06T05:36:20.713Z,61.71
2023-02-06T05:38:48.286Z,61.81
2023-02-06T05:41:16.408Z,60.83
2023-02-06T05:43:43.383Z,60.51
2023-02-06T05:46:11.397Z,62.04
2023-02-06T05:48:38.867Z,61.96
2023-02-06T05:51:05.971Z,61.02
2023-02-06T05:53:32.885Z,60.60
2023-02-06T05:55:59.694Z,61.14
2023-02-06T05:58:26.578Z,61.69
2023-02-06T06:00:53.566Z,61.08
2023-02-06T06:03:20.477Z,58.98
2023-02-06T06:05:47.344Z,60.41
2023-02-06T06:08:15.101Z,60.21
2023-02-06T06:10:42.183Z,59.95
2023-02-06T06:13:09.081Z,59.27
2023-02-06T06:15:36.032Z,59.31
2023-02-06T06:18:03.773Z,57.64
2023-02-06T06:20:30.680Z,58.83
2023-02-06T06:22:57.531Z,58.08
2023-02-06T06:25:24.390Z,59.14
2023-02-06T06:27:51.274Z,59.44
2023-02-06T06:30:18.304Z,59.60
2023-02-06T06:32:45.126Z,58.48
2023-02-06T06:35:11.952Z,58.90
2023-02-06T06:37:38.760Z,59.66
2023-02-06T06:40:05.908Z,58.50
2023-02-06T06:42:32.760Z,57.80
2023-02-06T06:44:59.691Z,58.50
2023-02-06T06:47:26.556Z,57.95
2023-02-06T06:49:53.397Z,57.46
2023-02-06T06:52:25.235Z,56.69
2023-02-06T06:54:53.376Z,55.06
2023-02-06T06:57:21.496Z,54.00
2023-02-06T06:59:48.508Z,53.97
2023-02-06T07:02:16.287Z,54.78
2023-02-06T07:04:43.163Z,55.54
2023-02-06T07:07:10.076Z,56.05
2023-02-06T07:09:36.935Z,53.61
2023-02-06T07:12:04.205Z,53.67
2023-02-06T07:14:31.107Z,54.08
2023-02-06T07:16:59.273Z,53.76
2023-02-06T07:19:26.232Z,54.25
2023-02-06T07:21:53.073Z,55.25
2023-02-06T07:24:19.916Z,54.21
2023-02-06T07:26:46.872Z,55.53
2023-02-06T07:29:13.679Z,55.36
2023-02-06T07:31:40.604Z,53.72
2023-02-06T07:34:07.446Z,55.03
2023-02-06T07:36:34.352Z,54.31
2023-02-06T07:39:03.391Z,53.50
2023-02-06T07:41:30.388Z,53.34
2023-02-06T07:43:57.266Z,54.20
2023-02-06T07:46:24.261Z,54.52
2023-02-06T07:48:51.402Z,54.13
2023-02-06T07:51:18.315Z,53.15
2023-02-06T07:53:45.165Z,53.49
2023-02-06T07:56:14.572Z,52.50
2023-02-06T07:58:41.598Z,51.87
2023-02-06T08:01:09.041Z,50.84
2023-02-06T08:03:36.639Z,51.33
2023-02-06T08:06:12.077Z,50.85
2023-02-06T08:08:38.983Z,49.79
2023-02-06T08:11:11.197Z,49.95
2023-02-06T08:13:38.535Z,50.01
2023-02-06T08:16:12.130Z,50.21
2023-02-06T08:18:39.372Z,50.44
2023-02-06T08:21:09.622Z,49.66
2023-02-06T08:23:36.698Z,49.23
2023-02-06T08:26:06.404Z,49.46
2023-02-06T08:28:35.295Z,49.73
2023-02-06T08:31:10.021Z,49.07
2023-02-06T08:33:37.244Z,48.84
2023-02-06T08:36:05.056Z,47.80
2023-02-06T08:38:32.023Z,47.89
2023-02-06T08:40:58.934Z,47.86
2023-02-06T08:43:25.909Z,47.66
2023-02-06T08:45:57.441Z,47.01
2023-02-06T08:48:24.303Z,46.74
2023-02-06T08:50:51.529Z,47.55
2023-02-06T08:53:18.469Z,46.71
2023-02-06T08:55:45.257Z,46.59
2023-02-06T08:58:12.142Z,46.49
2023-02-06T09:00:39.191Z,45.93
2023-02-06T09:03:06.010Z,45.87
2023-02-06T09:05:32.921Z,44.88
2023-02-06T09:08:01.301Z,45.19
2023-02-06T09:10:28.432Z,45.56
2023-02-06T09:12:55.360Z,45.71
2023-02-06T09:15:22.382Z,46.01
2023-02-06T09:17:49.201Z,45.19
2023-02-06T09:20:16.297Z,46.39
2023-02-06T09:22:44.744Z,46.81
2023-02-06T09:25:11.930Z,46.35
2023-02-06T09:27:38.904Z,46.59
2023-02-06T09:30:06.256Z,46.57
2023-02-06T09:32:33.139Z,47.06
2023-02-06T09:35:00.101Z,46.60
2023-02-06T09:37:27.424Z,46.70
2023-02-06T09:39:54.313Z,45.30
2023-02-06T09:42:29.546Z,45.36
2023-02-06T09:45:21.403Z,44.91
2023-02-06T09:48:03.352Z,44.56
2023-02-06T09:51:02.321Z,44.95
2023-02-06T09:53:47.921Z,46.18
2023-02-06T09:56:53.524Z,46.13
2023-02-06T09:59:39.289Z,45.92
2023-02-06T10:02:28.410Z,46.78
2023-02-06T10:05:22.525Z,46.19
2023-02-06T10:07:49.581Z,46.17
2023-02-06T10:10:22.601Z,44.92
2023-02-06T10:13:04.164Z,45.36
2023-02-06T10:15:40.563Z,44.37
2023-02-06T10:18:14.798Z,43.46
2023-02-06T10:20:49.980Z,44.43
2023-02-06T10:23:43.183Z,43.99
2023-02-06T10:26:18.889Z,44.00
2023-02-06T10:28:50.523Z,44.09
2023-02-06T10:31:34.153Z,44.22
2023-02-06T10:34:22.524Z,43.69
2023-02-06T10:37:01.538Z,44.08
2023-02-06T10:39:47.457Z,43.15
2023-02-06T10:42:39.168Z,42.99
2023-02-06T10:45:43.334Z,44.18
2023-02-06T10:48:29.486Z,44.13
2023-02-06T10:51:14.881Z,44.98
2023-02-06T10:53:54.287Z,44.74
2023-02-06T10:56:26.656Z,44.35
2023-02-06T10:59:07.643Z,44.07
2023-02-06T11:01:40.036Z,45.13
2023-02-06T11:04:16.897Z,44.59
2023-02-06T11:06:46.032Z,43.10
2023-02-06T11:09:14.336Z,43.50
2023-02-06T11:11:46.582Z,42.16
2023-02-06T11:14:20.837Z,43.01
2023-02-06T11:16:47.802Z,43.97
2023-02-06T11:19:30.352Z,43.45
2023-02-06T11:22:10.187Z,43.65
2023-02-06T11:24:38.380Z,43.29
2023-02-06T11:27:33.682Z,42.35
2023-02-06T11:30:08.355Z,41.99
2023-02-06T11:32:52.898Z,40.73
2023-02-06T11:35:32.387Z,41.21
2023-02-06T11:38:23.514Z,41.00
2023-02-06T11:41:06.510Z,41.86
2023-02-06T11:43:42.768Z,42.81
2023-02-06T11:46:16.324Z,41.77
2023-02-06T11:48:49.208Z,41.99
2023-02-06T11:51:17.028Z,41.00
2023-02-06T11:53:59.960Z,41.92
2023-02-06T11:56:28.466Z,40.09
2023-02-06T11:59:07.118Z,41.77
2023-02-06T12:01:48.029Z,42.09
2023-02-06T12:04:31.412Z,41.29
2023-02-06T12:07:12.967Z,41.38
2023-02-06T12:09:40.059Z,42.99
2023-02-06T12:12:18.560Z,43.26
2023-02-06T12:14:52.003Z,43.09
2023-02-06T12:17:39.995Z,43.38
2023-02-06T12:20:21.280Z,43.60
2023-02-06T12:22:57.501Z,43.58
2023-02-06T12:25:38.396Z,43.71
2023-02-06T12:28:49.672Z,44.33
2023-02-06T12:31:23.424Z,46.02
2023-02-06T12:34:00.831Z,45.79
2023-02-06T12:36:51.470Z,44.71
2023-02-06T12:39:21.277Z,44.18
2023-02-06T12:42:06.664Z,44.88
2023-02-06T12:44:41.205Z,44.97
2023-02-06T12:47:20.388Z,46.55
2023-02-06T12:50:04.814Z,47.83
2023-02-06T12:52:37.964Z,50.80
2023-02-06T12:55:18.899Z,52.38
2023-02-06T12:57:46.027Z,52.51
2023-02-06T13:00:41.273Z,51.15
2023-02-06T13:03:25.315Z,50.07
2023-02-06T13:06:02.686Z,49.12
2023-02-06T13:08:57.358Z,51.88
2023-02-06T13:11:35.105Z,52.29
2023-02-06T13:14:06.333Z,52.56
2023-02-06T13:16:58.274Z,51.66
2023-02-06T13:19:41.819Z,52.52
2023-02-06T13:22:08.568Z,51.45
2023-02-06T13:24:40.608Z,48.79
2023-02-06T13:27:07.540Z,49.75
2023-02-06T13:29:42.498Z,46.21
2023-02-06T13:32:12.305Z,48.20
2023-02-06T13:34:45.053Z,46.83
2023-02-06T13:37:35.262Z,46.28
2023-02-06T13:40:32.162Z,47.42
2023-02-06T13:43:10.124Z,48.53
2023-02-06T13:45:58.630Z,48.39
2023-02-06T13:48:49.686Z,48.84
2023-02-06T13:51:50.515Z,48.47
2023-02-06T13:54:58.269Z,48.76
2023-02-06T13:58:02.546Z,49.91
2023-02-06T14:00:33.038Z,50.43
2023-02-06T14:03:02.767Z,50.91
2023-02-06T14:05:48.510Z,48.27
2023-02-06T14:08:41.200Z,49.48
2023-02-06T14:11:54.471Z,46.50
2023-02-06T14:14:43.893Z,46.63
2023-02-06T14:19:31.876Z,45.81
2023-02-06T14:22:19.588Z,45.71
2023-02-06T14:25:18.832Z,45.79
2023-02-06T14:27:51.548Z,45.41
2023-02-06T14:30:37.928Z,46.69
2023-02-06T14:33:40.253Z,46.07
2023-02-06T14:36:19.743Z,47.27
2023-02-06T14:39:05.076Z,46.97
2023-02-06T14:41:33.351Z,45.92
2023-02-06T14:44:00.818Z,46.46
2023-02-06T14:46:28.991Z,45.73
2023-02-06T14:48:58.415Z,45.79
2023-02-06T14:51:39.502Z,47.07
2023-02-06T14:54:26.621Z,47.22
2023-02-06T14:57:02.608Z,48.80
2023-02-06T14:59:30.884Z,49.14
2023-02-06T15:01:59.581Z,48.41
2023-02-06T15:04:30.160Z,48.55
2023-02-06T15:07:02.853Z,49.89
2023-02-06T15:09:29.820Z,49.78
2023-02-06T15:12:00.305Z,49.83
2023-02-06T15:14:33.285Z,50.34
2023-02-06T15:17:02.606Z,52.12
2023-02-06T15:19:35.731Z,52.98
2023-02-06T15:22:06.576Z,51.57
2023-02-06T15:25:05.009Z,51.74
2023-02-06T15:27:37.006Z,53.61
2023-02-06T15:30:18.584Z,54.49
2023-02-06T15:32:50.193Z,53.43
2023-02-06T15:35:33.196Z,54.17
2023-02-06T15:38:06.135Z,52.62
2023-02-06T15:40:39.177Z,52.17
2023-02-06T15:43:06.382Z,55.43
2023-02-06T15:45:37.426Z,55.52
2023-02-06T15:48:12.987Z,56.03
2023-02-06T15:50:39.906Z,57.33
2023-02-06T15:53:21.240Z,57.51
2023-02-06T15:55:56.547Z,56.30
2023-02-06T15:58:24.943Z,54.16
2023-02-06T16:00:57.646Z,52.67
2023-02-06T16:03:27.599Z,54.34
2023-02-06T16:05:56.576Z,52.36
2023-02-06T16:08:34.402Z,52.23
2023-02-06T16:11:26.337Z,53.18
2023-02-06T16:13:54.032Z,53.15
2023-02-06T16:16:23.935Z,50.00
2023-02-06T16:18:52.682Z,47.49
2023-02-06T16:21:19.629Z,48.46
2023-02-06T16:23:47.880Z,48.58
2023-02-06T16:26:17.144Z,47.70
2023-02-06T16:29:16.036Z,46.37
2023-02-06T16:31:44.570Z,48.07
2023-02-06T16:34:42.457Z,47.31
2023-02-06T16:37:13.478Z,45.88
2023-02-06T16:39:44.585Z,45.10
2023-02-06T16:42:18.274Z,45.37
2023-02-06T16:44:49.659Z,46.13
2023-02-06T16:47:19.191Z,48.87
2023-02-06T16:49:49.673Z,47.54
2023-02-06T16:52:29.219Z,48.37
2023-02-06T16:54:59.106Z,48.28
2023-02-06T16:57:29.245Z,49.27
2023-02-06T16:59:56.935Z,48.08
2023-02-06T17:02:24.084Z,48.16
2023-02-06T17:04:51.103Z,48.18
2023-02-06T17:07:21.468Z,47.77
2023-02-06T17:09:50.820Z,48.97
2023-02-06T17:12:21.314Z,48.92
2023-02-06T17:14:49.010Z,50.52
2023-02-06T17:17:18.388Z,49.03
2023-02-06T17:19:45.796Z,49.33
2023-02-06T17:22:13.665Z,49.09
2023-02-06T17:24:40.945Z,49.62
2023-02-06T17:27:14.543Z,49.85
2023-02-06T17:29:41.485Z,48.93
2023-02-06T17:32:09.347Z,50.37
2023-02-06T17:34:37.427Z,52.42
2023-02-06T17:37:05.081Z,51.18
2023-02-06T17:39:33.422Z,50.96
2023-02-06T17:42:00.594Z,50.67
2023-02-06T17:44:27.508Z,52.16
2023-02-06T17:46:54.347Z,51.70
2023-02-06T17:49:21.304Z,50.13
2023-02-06T17:51:48.120Z,50.70
2023-02-06T17:54:15.187Z,50.92
2023-02-06T17:56:42.033Z,50.68
2023-02-06T17:59:08.971Z,51.64
2023-02-06T18:01:36.134Z,52.07
2023-02-06T18:04:03.829Z,50.45
2023-02-06T18:06:36.438Z,51.78
2023-02-06T18:09:03.744Z,50.72
2023-02-06T18:11:30.683Z,49.52
2023-02-06T18:13:58.065Z,51.12
2023-02-06T18:16:27.814Z,51.12
2023-02-06T18:18:55.301Z,50.98
2023-02-06T18:21:24.558Z,52.56
2023-02-06T18:23:53.248Z,51.50
2023-02-06T18:26:20.148Z,51.84
2023-02-06T18:28:47.237Z,53.01
2023-02-06T18:31:23.781Z,50.89
2023-02-06T18:33:51.034Z,52.68
2023-02-06T18:36:18.903Z,52.01
2023-02-06T18:38:45.837Z,52.58
2023-02-06T18:41:32.831Z,52.95
2023-02-06T18:44:01.100Z,52.74
2023-02-06T18:46:28.316Z,52.52
2023-02-06T18:48:55.780Z,52.22
2023-02-06T18:51:23.040Z,52.30
2023-02-06T18:53:50.376Z,50.92
2023-02-06T18:56:17.828Z,52.38
2023-02-06T18:58:44.729Z,52.54
2023-02-06T19:01:17.875Z,50.77
2023-02-06T19:03:45.461Z,52.01
2023-02-06T19:06:35.421Z,52.39
2023-02-06T19:09:07.128Z,51.04
2023-02-06T19:11:35.992Z,50.01
2023-02-06T19:14:04.349Z,49.35
2023-02-06T19:16:32.648Z,49.15
2023-02-06T19:18:59.749Z,50.56
2023-02-06T19:21:28.318Z,51.54
2023-02-06T19:23:57.608Z,52.71
2023-02-06T19:26:25.010Z,53.37
2023-02-06T19:28:52.840Z,51.98
2023-02-06T19:31:25.770Z,51.51
2023-02-06T19:33:59.076Z,53.01
2023-02-06T19:36:27.507Z,51.75
2023-02-06T19:39:00.141Z,51.53
2023-02-06T19:41:28.989Z,52.30
2023-02-06T19:43:57.254Z,51.96
2023-02-06T19:46:26.905Z,52.03
2023-02-06T19:48:55.185Z,52.93
2023-02-06T19:51:29.221Z,52.74
2023-02-06T19:53:57.476Z,52.91
2023-02-06T19:56:34.635Z,51.35
2023-02-06T19:59:04.228Z,51.58
2023-02-06T20:01:31.507Z,52.08
2023-02-06T20:04:00.197Z,51.63
2023-02-06T20:06:29.509Z,52.35
2023-02-06T20:08:57.467Z,53.25
2023-02-06T20:11:24.444Z,52.64
2023-02-06T20:13:55.697Z,53.50
2023-02-06T20:16:25.700Z,51.37
2023-02-06T20:18:54.177Z,51.15
2023-02-06T20:21:22.488Z,49.99
2023-02-06T20:23:50.031Z,51.33
2023-02-06T20:26:19.682Z,50.25
2023-02-06T20:28:47.449Z,50.55
2023-02-06T20:31:14.562Z,50.29
2023-02-06T20:33:42.647Z,50.71
2023-02-06T20:36:12.382Z,50.50
2023-02-06T20:38:39.311Z,51.89
2023-02-06T20:41:07.124Z,51.73
2023-02-06T20:43:35.782Z,54.75
2023-02-06T20:46:07.782Z,53.63
2023-02-06T20:48:35.832Z,53.72
2023-02-06T20:51:05.031Z,50.63
2023-02-06T20:53:32.007Z,49.46
2023-02-06T20:55:59.126Z,50.42
2023-02-06T20:58:26.227Z,50.45
2023-02-06T21:00:53.766Z,50.42
2023-02-06T21:03:20.937Z,50.91
2023-02-06T21:05:59.073Z,52.56
2023-02-06T21:08:26.778Z,51.19
2023-02-06T21:10:53.727Z,51.81
2023-02-06T21:13:20.679Z,51.63
2023-02-06T21:15:55.104Z,51.64
2023-02-06T21:18:23.370Z,52.62
2023-02-06T21:20:50.957Z,50.50
2023-02-06T21:23:17.831Z,51.11
2023-02-06T21:25:54.356Z,50.74
2023-02-06T21:28:22.504Z,51.50
2023-02-06T21:30:50.102Z,52.19
2023-02-06T21:33:17.115Z,53.13
2023-02-06T21:35:50.996Z,55.49
2023-02-06T21:38:18.301Z,54.77
2023-02-06T21:40:45.399Z,55.63
2023-02-06T21:43:12.907Z,55.04
2023-02-06T21:45:40.268Z,53.93
2023-02-06T21:48:08.738Z,53.12
2023-02-06T21:50:40.286Z,52.82
2023-02-06T21:53:08.622Z,53.60
2023-02-06T21:55:40.745Z,53.99
2023-02-06T21:58:07.567Z,53.07
2023-02-06T22:00:34.888Z,52.90
2023-02-06T22:03:02.001Z,53.72
2023-02-06T22:05:29.291Z,52.00
2023-02-06T22:07:56.939Z,52.81
2023-02-06T22:10:23.768Z,54.28
2023-02-06T22:12:50.731Z,52.86
2023-02-06T22:15:17.799Z,52.27
2023-02-06T22:17:44.991Z,54.30
2023-02-06T22:20:11.875Z,52.91
2023-02-06T22:22:39.638Z,54.48
2023-02-06T22:25:08.424Z,53.19
2023-02-06T22:27:35.820Z,54.73
2023-02-06T22:30:03.021Z,54.26
2023-02-06T22:32:29.934Z,53.58
2023-02-06T22:35:00.657Z,52.69
2023-02-06T22:37:30.172Z,53.61
2023-02-06T22:39:57.148Z,51.77
2023-02-06T22:42:24.219Z,52.83
2023-02-06T22:44:51.099Z,52.30
2023-02-06T22:47:18.052Z,53.03
2023-02-06T22:49:45.044Z,52.47
2023-02-06T22:52:30.595Z,52.53
2023-02-06T22:54:57.461Z,51.25
2023-02-06T22:57:24.365Z,52.27
2023-02-06T22:59:51.247Z,53.01
2023-02-06T23:02:18.184Z,54.07
2023-02-06T23:04:45.011Z,52.73
2023-02-06T23:07:11.886Z,53.45
2023-02-06T23:09:39.392Z,52.42
2023-02-06T23:12:06.464Z,52.17
2023-02-06T23:14:33.745Z,53.21
2023-02-06T23:17:01.947Z,52.40
2023-02-06T23:19:29.268Z,53.29
2023-02-06T23:21:56.219Z,53.17
2023-02-06T23:24:23.135Z,51.93
2023-02-06T23:26:51.478Z,51.44
2023-02-06T23:29:19.543Z,50.78
2023-02-06T23:31:47.805Z,51.04
2023-02-06T23:34:16.027Z,51.39
2023-02-06T23:36:43.085Z,51.79
2023-02-06T23:39:11.845Z,51.51
2023-02-06T23:41:39.017Z,52.99
2023-02-06T23:44:07.400Z,52.84
2023-02-06T23:46:36.975Z,50.42
2023-02-06T23:49:04.702Z,50.38
2023-02-06T23:51:32.978Z,52.08
2023-02-06T23:54:00.017Z,51.46
2023-02-06T23:56:29.411Z,52.18
2023-02-06T23:58:57.575Z,52.14
